Site contains unofficial IBTrACS data. Visit the IBTrACS Website to access archived data.

1885 Hurricane NOT_NAMED (1885267N30304)


IBTrACS version v04r00. Visit IBTrACS website for data access.
Please direct all questions to the IBTrACS Q and A forum

Storm track - Intensity - Wind Radii - Intensity Data - Source Data - All data

Summary Information

Storm ID 1885267N30304
Start Sep 23 12Z
Max Intensity 65 kt (Sep 26 00Z)
End Sep 29 12Z
ATCF IDs
Track status Best track data.

Storm track plot

Map of storm track

Intensity plots

Map of storm track

Radial wind information

No radial wind information for this storm


Position and Intensity Table

BASIN ISO_TIME_________ NATURE LAT LON MLC WIND
degrees north degrees east kts
NA 1885-09-23 12:00:00 TS 29.50 -56.30 30
NA 15:00:00 TS 29.91 -56.24 30
NA 18:00:00 TS 30.30 -56.20 30
NA 21:00:00 TS 30.65 -56.20 30
NA 1885-09-24 00:00:00 TS 31.00 -56.20 30
NA 03:00:00 TS 31.40 -56.16 30
NA 06:00:00 TS 31.80 -56.10 30
NA 09:00:00 TS 32.18 -56.06 32
NA 12:00:00 TS 32.50 -56.00 35
NA 15:00:00 TS 32.72 -55.91 37
NA 18:00:00 TS 32.90 -55.80 40
NA 21:00:00 TS 33.10 -55.70 42
NA 1885-09-25 00:00:00 TS 33.30 -55.60 45
NA 03:00:00 TS 33.51 -55.50 47
NA 06:00:00 TS 33.70 -55.40 50
NA 09:00:00 TS 33.86 -55.31 52
NA 12:00:00 TS 34.00 -55.20 55
NA 15:00:00 TS 34.11 -55.05 57
NA 18:00:00 TS 34.20 -54.90 60
NA 21:00:00 TS 34.30 -54.78 62
NA 1885-09-26 00:00:00 TS 34.40 -54.70 65
NA 03:00:00 TS 34.50 -54.64 65
NA 06:00:00 TS 34.60 -54.60 65
NA 09:00:00 TS 34.70 -54.54 65
NA 12:00:00 TS 34.80 -54.50 65
NA 15:00:00 TS 34.91 -54.53 65
NA 18:00:00 TS 35.00 -54.60 65
NA 21:00:00 TS 35.05 -54.65 65
NA 1885-09-27 00:00:00 TS 35.10 -54.70 65
NA 03:00:00 TS 35.19 -54.74 65
NA 06:00:00 TS 35.30 -54.80 65
NA 09:00:00 TS 35.39 -54.89 65
NA 12:00:00 TS 35.50 -55.00 65
NA 15:00:00 TS 35.65 -55.10 65
NA 18:00:00 TS 35.80 -55.20 65
NA 21:00:00 TS 35.90 -55.30 65
NA 1885-09-28 00:00:00 TS 36.00 -55.40 65
NA 03:00:00 TS 36.15 -55.50 65
NA 06:00:00 TS 36.30 -55.60 65
NA 09:00:00 TS 36.31 -55.74 65
NA 12:00:00 TS 36.50 -55.80 65
NA 15:00:00 TS 37.15 -55.65 62
NA 18:00:00 TS 38.00 -55.40 60
NA 21:00:00 TS 38.73 -55.35 55
NA 1885-09-29 00:00:00 TS 39.50 -55.00 50
NA 03:00:00 TS 40.39 -53.91 42
NA 06:00:00 TS 41.30 -52.50 35
NA 09:00:00 TS 42.17 -51.20 32
NA 12:00:00 TS 43.00 -50.00 30

Source Information

Agency Information
USA
TOKYO
CMA
HKO
NEWDELHI
REUNION
BOM
NADI
WELLINGTON
DS824
TD9636
TD9635
NEUMANN
MLC

All available IBTrACS Data

SEASON BASIN SUBBASIN ISO_TIME_________ NATURE LAT LON DIST2LAND LANDFALL IFLAG USA SSHS MLC LAT MLC LON MLC CLASS MLC WIND STORM SPEED STORM DIR
Year degrees north degrees east km km 1 degrees north degrees east kts kts degrees
1885 NA NA 1885-09-23 12:00:00 TS 29.50 -56.30 1557 1557 _____________O -1 29.50 -56.30 TD 30 8 8
1885 NA NA 15:00:00 TS 29.91 -56.24 1598 1598 _____________P -1 29.91 -56.24 TD 30 8 6
1885 NA NA 18:00:00 TS 30.30 -56.20 1633 1633 _____________O -1 30.30 -56.20 TD 30 7 2
1885 NA NA 21:00:00 TS 30.65 -56.20 1634 1605 _____________P -1 30.65 -56.20 TD 30 7 0
1885 NA NA 1885-09-24 00:00:00 TS 31.00 -56.20 1605 1565 _____________O -1 31.00 -56.20 TD 30 8 2
1885 NA NA 03:00:00 TS 31.40 -56.16 1565 1530 _____________P -1 31.40 -56.16 TD 30 8 6
1885 NA NA 06:00:00 TS 31.80 -56.10 1530 1491 _____________O -1 31.80 -56.10 TD 30 8 7
1885 NA NA 09:00:00 TS 32.18 -56.06 1491 1467 _____________P -1 32.18 -56.06 TD 32 7 7
1885 NA NA 12:00:00 TS 32.50 -56.00 1467 1453 _____________O -1 32.50 -56.00 TS 35 6 13
1885 NA NA 15:00:00 TS 32.72 -55.91 1453 1439 _____________P -1 32.72 -55.91 TS 37 4 23
1885 NA NA 18:00:00 TS 32.90 -55.80 1439 1423 _____________O -1 32.90 -55.80 TS 40 4 25
1885 NA NA 21:00:00 TS 33.10 -55.70 1423 1405 _____________P -1 33.10 -55.70 TS 42 4 23
1885 NA NA 1885-09-25 00:00:00 TS 33.30 -55.60 1405 1387 _____________O -1 33.30 -55.60 TS 45 4 22
1885 NA NA 03:00:00 TS 33.51 -55.50 1387 1368 _____________P -1 33.51 -55.50 TS 47 4 23
1885 NA NA 06:00:00 TS 33.70 -55.40 1368 1351 _____________O -1 33.70 -55.40 TS 50 4 24
1885 NA NA 09:00:00 TS 33.86 -55.31 1351 1343 _____________P -1 33.86 -55.31 TS 52 3 29
1885 NA NA 12:00:00 TS 34.00 -55.20 1343 1336 _____________O -1 34.00 -55.20 TS 55 3 41
1885 NA NA 15:00:00 TS 34.11 -55.05 1339 1329 _____________P -1 34.11 -55.05 TS 57 3 51
1885 NA NA 18:00:00 TS 34.20 -54.90 1332 1325 _____________O -1 34.20 -54.90 TS 60 3 49
1885 NA NA 21:00:00 TS 34.30 -54.78 1325 1318 _____________P -1 34.30 -54.78 TS 62 3 40
1885 NA NA 1885-09-26 00:00:00 TS 34.40 -54.70 1318 1308 _____________O -1 34.40 -54.70 HU 65 2 31
1885 NA NA 03:00:00 TS 34.50 -54.64 1311 1301 _____________P -1 34.50 -54.64 HU 65 2 23
1885 NA NA 06:00:00 TS 34.60 -54.60 1301 1291 _____________O -1 34.60 -54.60 HU 65 2 25
1885 NA NA 09:00:00 TS 34.70 -54.54 1295 1284 _____________P -1 34.70 -54.54 HU 65 2 23
1885 NA NA 12:00:00 TS 34.80 -54.50 1284 1274 _____________O -1 34.80 -54.50 HU 65 2 8
1885 NA NA 15:00:00 TS 34.91 -54.53 1274 1260 _____________P -1 34.91 -54.53 HU 65 2 337
1885 NA NA 18:00:00 TS 35.00 -54.60 1260 1260 _____________O -1 35.00 -54.60 HU 65 2 326
1885 NA NA 21:00:00 TS 35.05 -54.65 1246 1246 _____________P -1 35.05 -54.65 HU 65 1 323
1885 NA NA 1885-09-27 00:00:00 TS 35.10 -54.70 1246 1236 _____________O -1 35.10 -54.70 HU 65 2 331
1885 NA NA 03:00:00 TS 35.19 -54.74 1236 1222 _____________P -1 35.19 -54.74 HU 65 2 337
1885 NA NA 06:00:00 TS 35.30 -54.80 1222 1209 _____________O -1 35.30 -54.80 HU 65 2 327
1885 NA NA 09:00:00 TS 35.39 -54.89 1209 1195 _____________P -1 35.39 -54.89 HU 65 3 320
1885 NA NA 12:00:00 TS 35.50 -55.00 1195 1181 _____________O -1 35.50 -55.00 HU 65 3 327
1885 NA NA 15:00:00 TS 35.65 -55.10 1171 1157 _____________P -1 35.65 -55.10 HU 65 3 332
1885 NA NA 18:00:00 TS 35.80 -55.20 1157 1143 _____________O -1 35.80 -55.20 HU 65 3 327
1885 NA NA 21:00:00 TS 35.90 -55.30 1143 1129 _____________P -1 35.90 -55.30 HU 65 3 320
1885 NA NA 1885-09-28 00:00:00 TS 36.00 -55.40 1129 1116 _____________O -1 36.00 -55.40 HU 65 3 327
1885 NA NA 03:00:00 TS 36.15 -55.50 1105 1092 _____________P -1 36.15 -55.50 HU 65 3 332
1885 NA NA 06:00:00 TS 36.30 -55.60 1092 1088 _____________O -1 36.30 -55.60 HU 65 3 309
1885 NA NA 09:00:00 TS 36.31 -55.74 1088 1064 _____________P -1 36.31 -55.74 HU 65 3 320
1885 NA NA 12:00:00 TS 36.50 -55.80 1064 1006 _____________O -1 36.50 -55.80 HU 65 8 6
1885 NA NA 15:00:00 TS 37.15 -55.65 1000 929 _____________P -1 37.15 -55.65 HU 62 15 12
1885 NA NA 18:00:00 TS 38.00 -55.40 929 861 _____________O -1 38.00 -55.40 TS 60 16 8
1885 NA NA 21:00:00 TS 38.73 -55.35 861 797 _____________P -1 38.73 -55.35 TS 55 15 12
1885 NA NA 1885-09-29 00:00:00 TS 39.50 -55.00 797 701 _____________O -1 39.50 -55.00 TS 50 20 34
1885 NA NA 03:00:00 TS 40.39 -53.91 689 591 _____________P -1 40.39 -53.91 TS 42 26 47
1885 NA NA 06:00:00 TS 41.30 -52.50 591 522 _____________O -1 41.30 -52.50 TS 35 27 49
1885 NA NA 09:00:00 TS 42.17 -51.20 513 468 _____________P -1 42.17 -51.20 TS 32 25 47
1885 NA NA 12:00:00 TS 43.00 -50.00 472 _____________O -1 43.00 -50.00 TD 30 24 47